createdAt,value
2019-01-28T00:00:56.292Z,14.60
2019-01-28T00:03:24.758Z,13.57
2019-01-28T00:05:53.047Z,14.83
2019-01-28T00:08:22.177Z,13.08
2019-01-28T00:10:50.518Z,15.00
2019-01-28T00:13:18.951Z,13.13
2019-01-28T00:15:47.840Z,14.83
2019-01-28T00:18:16.234Z,15.13
2019-01-28T00:20:44.541Z,15.00
2019-01-28T00:23:12.825Z,13.00
2019-01-28T00:25:41.154Z,13.40
2019-01-28T00:28:10.674Z,12.70
2019-01-28T00:30:38.924Z,16.35
2019-01-28T00:33:07.320Z,15.03
2019-01-28T00:35:37.231Z,13.47
2019-01-28T00:38:05.512Z,14.40
2019-01-28T00:40:33.843Z,17.20
2019-01-28T00:43:02.136Z,15.83
2019-01-28T00:45:30.414Z,15.07
2019-01-28T00:47:58.742Z,14.70
2019-01-28T00:50:27.034Z,12.77
2019-01-28T00:52:55.310Z,16.30
2019-01-28T00:55:23.626Z,14.83
2019-01-28T00:57:53.176Z,17.60
2019-01-28T01:00:23.318Z,13.80
2019-01-28T01:02:51.709Z,14.35
2019-01-28T01:05:20.069Z,14.13
2019-01-28T01:07:48.360Z,17.52
2019-01-28T01:10:17.535Z,14.15
2019-01-28T01:12:45.808Z,16.17
2019-01-28T01:15:16.043Z,12.58
2019-01-28T01:17:46.008Z,17.92
2019-01-28T01:20:15.928Z,17.95
2019-01-28T01:22:44.290Z,15.85
2019-01-28T01:25:13.346Z,15.97
2019-01-28T01:27:41.637Z,14.85
2019-01-28T01:30:15.547Z,15.88
2019-01-28T01:32:43.896Z,16.12
2019-01-28T01:35:12.229Z,14.47
2019-01-28T01:37:40.519Z,13.13
2019-01-28T01:40:13.827Z,14.10
2019-01-28T01:42:42.098Z,14.17
2019-01-28T01:45:12.835Z,14.28
2019-01-28T01:47:42.794Z,12.70
2019-01-28T01:50:11.694Z,15.88
2019-01-28T01:52:39.977Z,11.60
2019-01-28T01:55:10.851Z,13.68
2019-01-28T01:57:39.145Z,12.98
2019-01-28T02:00:15.850Z,13.77
2019-01-28T02:02:44.122Z,12.20
2019-01-28T02:05:12.479Z,12.98
2019-01-28T02:07:40.812Z,13.48
2019-01-28T02:10:13.991Z,13.43
2019-01-28T02:12:43.122Z,11.73
2019-01-28T02:15:14.543Z,11.97
2019-01-28T02:17:42.853Z,11.45
2019-01-28T02:20:11.764Z,12.73
2019-01-28T02:22:40.105Z,11.55
2019-01-28T02:25:10.819Z,9.07
2019-01-28T02:27:39.100Z,12.03
2019-01-28T02:30:15.091Z,9.40
2019-01-28T02:32:43.384Z,10.28
2019-01-28T02:38:30.636Z,9.87
2019-01-28T02:40:58.910Z,10.13
2019-01-28T02:43:27.196Z,8.48
2019-01-28T02:45:55.523Z,9.25
2019-01-28T02:48:23.827Z,9.08
2019-01-28T02:50:52.099Z,9.30
2019-01-28T02:53:20.418Z,10.80
2019-01-28T02:55:48.689Z,8.78
2019-01-28T02:58:16.967Z,10.03
2019-01-28T03:00:45.285Z,9.73
2019-01-28T03:03:13.570Z,8.68
2019-01-28T03:05:41.861Z,10.55
2019-01-28T03:08:10.178Z,10.30
2019-01-28T03:10:38.470Z,10.55
2019-01-28T03:13:06.751Z,10.60
2019-01-28T03:15:35.132Z,9.57
2019-01-28T03:18:03.403Z,9.73
2019-01-28T03:20:31.696Z,10.55
2019-01-28T03:23:00.016Z,9.80
2019-01-28T03:25:28.370Z,9.68
2019-01-28T03:27:56.653Z,9.43
2019-01-28T03:30:24.978Z,11.40
2019-01-28T03:32:53.279Z,10.43
2019-01-28T03:35:21.557Z,9.73
2019-01-28T03:37:49.887Z,9.43
2019-01-28T03:40:19.814Z,11.70
2019-01-28T03:42:48.635Z,7.65
2019-01-28T03:45:18.897Z,9.95
2019-01-28T03:47:47.175Z,9.77
2019-01-28T03:50:17.098Z,9.38
2019-01-28T03:52:45.588Z,11.40
2019-01-28T03:55:13.862Z,7.43
2019-01-28T03:57:42.197Z,8.70
2019-01-28T04:00:18.589Z,8.90
2019-01-28T04:02:46.858Z,9.05
2019-01-28T04:05:15.152Z,9.65
2019-01-28T04:07:43.516Z,9.00
2019-01-28T04:10:15.054Z,8.60
2019-01-28T04:12:43.343Z,9.70
2019-01-28T04:15:14.004Z,9.17
2019-01-28T04:17:42.286Z,7.72
2019-01-28T04:20:12.915Z,10.68
2019-01-28T04:22:41.241Z,9.05
2019-01-28T04:25:10.773Z,8.48
2019-01-28T04:27:39.055Z,9.13
2019-01-28T04:30:10.639Z,9.93
2019-01-28T04:32:38.936Z,8.63
2019-01-28T04:35:08.678Z,10.60
2019-01-28T04:37:36.989Z,8.77
2019-01-28T04:40:11.343Z,8.37
2019-01-28T04:42:39.632Z,7.78
2019-01-28T04:45:10.693Z,8.83
2019-01-28T04:47:38.994Z,10.70
2019-01-28T04:50:10.494Z,10.40
2019-01-28T04:52:38.819Z,8.47
2019-01-28T04:55:08.245Z,7.60
2019-01-28T04:57:36.696Z,7.58
2019-01-28T05:00:08.341Z,9.73
2019-01-28T05:02:36.634Z,10.90
2019-01-28T05:05:05.766Z,8.58
2019-01-28T05:07:34.082Z,7.90
2019-01-28T05:10:02.848Z,7.95
2019-01-28T05:12:31.188Z,9.07
2019-01-28T05:14:59.532Z,8.30
2019-01-28T05:17:27.815Z,6.67
2019-01-28T05:19:56.097Z,8.47
2019-01-28T05:22:24.423Z,8.17
2019-01-28T05:24:52.716Z,9.78
2019-01-28T05:27:20.998Z,9.53
2019-01-28T05:29:49.317Z,8.10
2019-01-28T05:32:17.614Z,10.55
2019-01-28T05:34:45.904Z,12.63
2019-01-28T05:37:15.011Z,10.03
2019-01-28T05:39:43.279Z,9.53
2019-01-28T05:42:11.567Z,9.40
2019-01-28T05:44:39.885Z,8.83
2019-01-28T05:47:08.163Z,12.40
2019-01-28T05:49:36.452Z,10.45
2019-01-28T05:52:04.789Z,11.45
2019-01-28T05:54:33.072Z,13.13
2019-01-28T05:57:01.357Z,12.97
2019-01-28T05:59:29.672Z,14.25
2019-01-28T06:01:57.948Z,13.13
2019-01-28T06:04:26.234Z,10.63
2019-01-28T06:06:54.543Z,10.63
2019-01-28T06:09:22.823Z,9.95
2019-01-28T06:11:51.115Z,11.80
2019-01-28T06:14:19.439Z,9.53
2019-01-28T06:16:47.792Z,9.83
2019-01-28T06:19:16.078Z,11.40
2019-01-28T06:21:44.384Z,11.87
2019-01-28T06:24:12.664Z,11.33
2019-01-28T06:26:40.945Z,10.93
2019-01-28T06:29:09.238Z,11.00
2019-01-28T06:31:37.518Z,10.53
2019-01-28T06:34:05.804Z,13.27
2019-01-28T06:36:34.126Z,12.40
2019-01-28T06:39:02.479Z,10.73
2019-01-28T06:41:30.763Z,12.97
2019-01-28T06:43:59.078Z,10.93
2019-01-28T06:46:27.355Z,12.17
2019-01-28T06:48:55.639Z,12.33
2019-01-28T06:51:23.957Z,14.70
2019-01-28T06:53:52.243Z,16.27
2019-01-28T06:56:20.532Z,13.60
2019-01-28T06:58:48.846Z,11.60
2019-01-28T07:01:17.129Z,15.30
2019-01-28T07:03:45.404Z,13.77
2019-01-28T07:06:13.773Z,14.20
2019-01-28T07:08:43.786Z,18.57
2019-01-28T07:11:12.102Z,18.83
2019-01-28T07:13:40.488Z,16.67
2019-01-28T07:16:09.448Z,14.13
2019-01-28T07:18:37.732Z,14.67
2019-01-28T07:21:06.042Z,14.33
2019-01-28T07:23:34.317Z,14.80
2019-01-28T07:26:02.597Z,13.20
2019-01-28T07:28:30.926Z,14.07
2019-01-28T07:30:59.252Z,12.30
2019-01-28T07:33:27.532Z,14.27
2019-01-28T07:35:55.847Z,14.50
2019-01-28T07:38:24.145Z,14.83
2019-01-28T07:40:52.425Z,13.10
2019-01-28T07:43:20.745Z,14.57
2019-01-28T07:45:49.021Z,14.63
2019-01-28T07:48:17.371Z,17.07
2019-01-28T07:50:45.683Z,16.47
2019-01-28T07:53:14.034Z,18.37
2019-01-28T07:55:42.384Z,17.37
2019-01-28T07:58:10.760Z,18.17
2019-01-28T08:00:39.041Z,15.27
2019-01-28T08:03:07.318Z,12.90
2019-01-28T08:05:35.655Z,12.83
2019-01-28T08:08:04.097Z,9.10
2019-01-28T08:10:32.380Z,11.27
2019-01-28T08:13:00.691Z,11.30
2019-01-28T08:15:29.144Z,16.23
2019-01-28T08:17:57.501Z,15.77
2019-01-28T08:20:25.813Z,10.73
2019-01-28T08:22:54.090Z,11.03
2019-01-28T08:25:22.605Z,12.97
2019-01-28T08:27:51.037Z,15.10
2019-01-28T08:30:27.392Z,15.40
2019-01-28T08:32:55.794Z,14.57
2019-01-28T08:35:24.222Z,17.97
2019-01-28T08:37:52.521Z,17.47
2019-01-28T08:40:22.702Z,16.67
2019-01-28T08:42:50.995Z,15.67
2019-01-28T08:45:19.274Z,17.57
2019-01-28T08:47:47.596Z,19.07
2019-01-28T08:50:26.642Z,15.70
2019-01-28T08:52:55.047Z,17.43
2019-01-28T08:55:25.275Z,17.83
2019-01-28T08:57:53.793Z,16.50
2019-01-28T09:00:24.410Z,16.80
2019-01-28T09:02:52.693Z,20.17
2019-01-28T09:05:22.398Z,21.40
2019-01-28T09:07:50.853Z,28.80
2019-01-28T09:10:21.987Z,22.30
2019-01-28T09:12:50.277Z,19.77
2019-01-28T09:15:20.614Z,17.80
2019-01-28T09:17:48.973Z,20.87
2019-01-28T09:20:28.747Z,18.37
2019-01-28T09:22:57.097Z,18.77
2019-01-28T09:25:25.382Z,22.07
2019-01-28T09:27:53.703Z,19.60
2019-01-28T09:30:26.970Z,17.50
2019-01-28T09:32:55.241Z,15.83
2019-01-28T09:35:23.625Z,14.60
2019-01-28T09:37:52.153Z,14.30
2019-01-28T09:40:25.270Z,17.27
2019-01-28T09:42:53.672Z,19.90
2019-01-28T09:45:24.392Z,20.83
2019-01-28T09:47:52.683Z,14.83
2019-01-28T09:50:21.091Z,22.47
2019-01-28T09:52:50.409Z,14.50
2019-01-28T09:55:18.695Z,20.83
2019-01-28T09:57:47.090Z,20.40
2019-01-28T10:00:21.942Z,27.13
2019-01-28T10:02:50.222Z,19.30
2019-01-28T10:05:18.557Z,24.97
2019-01-28T10:07:46.827Z,20.10
2019-01-28T10:10:19.409Z,21.17
2019-01-28T10:12:47.743Z,30.63
2019-01-28T10:15:19.272Z,23.50
2019-01-28T10:17:47.553Z,23.43
2019-01-28T10:20:19.194Z,21.70
2019-01-28T10:22:47.480Z,16.43
2019-01-28T10:25:15.834Z,22.30
2019-01-28T10:27:44.328Z,19.03
2019-01-28T10:30:15.916Z,17.87
2019-01-28T10:32:44.273Z,23.70
2019-01-28T10:35:12.590Z,21.27
2019-01-28T10:37:40.946Z,34.43
2019-01-28T10:40:15.308Z,28.53
2019-01-28T10:42:43.621Z,26.17
2019-01-28T10:45:13.757Z,24.23
2019-01-28T10:47:42.117Z,23.40
2019-01-28T10:50:13.982Z,20.90
2019-01-28T10:52:42.465Z,22.00
2019-01-28T10:55:12.554Z,27.93
2019-01-28T10:57:40.886Z,21.83
2019-01-28T11:00:15.069Z,18.97
2019-01-28T11:02:43.431Z,17.93
2019-01-28T11:05:11.746Z,20.13
2019-01-28T11:07:40.024Z,20.53
2019-01-28T11:10:11.813Z,18.53
2019-01-28T11:12:40.185Z,19.70
2019-01-28T11:15:14.705Z,21.00
2019-01-28T11:17:43.003Z,23.30
2019-01-28T11:20:12.718Z,24.40
2019-01-28T11:22:41.236Z,23.30
2019-01-28T11:25:15.087Z,21.77
2019-01-28T11:27:43.541Z,19.33
2019-01-28T11:30:15.242Z,24.50
2019-01-28T11:32:43.650Z,22.23
2019-01-28T11:35:12.051Z,17.27
2019-01-28T11:37:40.416Z,20.80
2019-01-28T11:40:14.395Z,20.07
2019-01-28T11:42:42.820Z,21.37
2019-01-28T11:45:14.560Z,33.47
2019-01-28T11:47:42.923Z,29.60
2019-01-28T11:50:14.286Z,18.30
2019-01-28T11:52:42.785Z,19.00
2019-01-28T11:55:11.078Z,20.33
2019-01-28T11:57:39.400Z,21.93
2019-01-28T12:00:37.602Z,18.30
2019-01-28T12:03:06.055Z,13.63
2019-01-28T12:05:34.632Z,17.77
2019-01-28T12:08:04.211Z,15.20
2019-01-28T12:10:32.668Z,11.03
2019-01-28T12:13:01.091Z,13.87
2019-01-28T12:15:29.592Z,11.43
2019-01-28T12:17:57.911Z,9.67
2019-01-28T12:20:26.399Z,9.80
2019-01-28T12:22:54.686Z,11.87
2019-01-28T12:25:23.076Z,12.43
2019-01-28T12:27:51.504Z,12.40
2019-01-28T12:30:23.042Z,10.77
2019-01-28T12:32:51.495Z,11.07
2019-01-28T12:35:19.991Z,9.73
2019-01-28T12:37:48.287Z,10.77
2019-01-28T12:40:20.708Z,8.27
2019-01-28T12:42:49.058Z,11.20
2019-01-28T12:45:22.004Z,10.53
2019-01-28T12:47:50.538Z,10.00
2019-01-28T12:50:20.361Z,11.10
2019-01-28T12:52:48.865Z,12.20
2019-01-28T12:55:21.401Z,11.03
2019-01-28T12:57:49.985Z,10.97
2019-01-28T13:00:28.526Z,10.97
2019-01-28T13:02:57.008Z,8.27
2019-01-28T13:05:25.987Z,9.30
2019-01-28T13:07:54.307Z,10.50
2019-01-28T13:10:24.090Z,9.33
2019-01-28T13:12:52.367Z,7.90
2019-01-28T13:15:26.712Z,9.17
2019-01-28T13:17:54.994Z,10.83
2019-01-28T13:20:23.488Z,11.00
2019-01-28T13:22:52.035Z,10.20
2019-01-28T13:25:22.525Z,8.80
2019-01-28T13:27:51.021Z,9.50
2019-01-28T13:30:24.482Z,12.73
2019-01-28T13:32:52.968Z,10.13
2019-01-28T13:35:21.448Z,9.90
2019-01-28T13:37:49.830Z,10.70
2019-01-28T13:40:19.916Z,11.23
2019-01-28T13:42:48.200Z,9.63
2019-01-28T13:45:21.371Z,10.17
2019-01-28T13:47:50.089Z,12.30
2019-01-28T13:50:21.138Z,12.63
2019-01-28T13:52:49.649Z,10.33
2019-01-28T13:55:18.937Z,11.30
2019-01-28T13:57:47.427Z,10.90
2019-01-28T14:00:24.521Z,11.77
2019-01-28T14:02:52.798Z,12.83
2019-01-28T14:05:21.286Z,10.47
2019-01-28T14:07:49.612Z,11.33
2019-01-28T14:10:20.457Z,11.07
2019-01-28T14:12:48.870Z,10.10
2019-01-28T14:15:25.880Z,12.13
2019-01-28T14:17:54.370Z,10.80
2019-01-28T14:20:30.753Z,12.87
2019-01-28T14:22:59.227Z,9.80
2019-01-28T14:25:27.574Z,11.17
2019-01-28T14:27:56.115Z,13.10
2019-01-28T14:30:36.217Z,11.00
2019-01-28T14:33:05.133Z,11.27
2019-01-28T14:35:33.547Z,15.60
2019-01-28T14:38:03.705Z,13.00
2019-01-28T14:40:32.139Z,13.47
2019-01-28T14:43:00.629Z,11.50
2019-01-28T14:45:29.114Z,12.23
2019-01-28T14:47:57.643Z,13.83
2019-01-28T14:50:32.004Z,12.13
2019-01-28T14:53:00.494Z,15.17
2019-01-28T14:55:29.023Z,17.67
2019-01-28T14:57:57.514Z,15.43
2019-01-28T15:00:29.052Z,14.70
2019-01-28T15:02:57.570Z,16.83
2019-01-28T15:05:25.922Z,14.70
2019-01-28T15:07:54.575Z,18.23
2019-01-28T15:10:23.320Z,28.23
2019-01-28T15:12:51.827Z,15.57
2019-01-28T15:15:22.919Z,13.90
2019-01-28T15:17:51.455Z,15.10
2019-01-28T15:20:19.938Z,14.37
2019-01-28T15:22:48.426Z,17.43
2019-01-28T15:25:17.452Z,14.93
2019-01-28T15:27:45.865Z,15.40
2019-01-28T15:30:23.471Z,12.70
2019-01-28T15:32:51.987Z,16.77
2019-01-28T15:35:20.518Z,15.57
2019-01-28T15:37:49.057Z,17.50
2019-01-28T15:40:20.061Z,18.23
2019-01-28T15:42:48.546Z,18.13
2019-01-28T15:45:28.681Z,21.03
2019-01-28T15:47:57.168Z,13.87
2019-01-28T15:50:25.659Z,15.27
2019-01-28T15:52:54.183Z,14.27
2019-01-28T15:55:28.458Z,15.57
2019-01-28T15:57:56.943Z,15.07
2019-01-28T16:00:27.979Z,15.03
2019-01-28T16:02:56.462Z,16.30
2019-01-28T16:05:24.955Z,15.30
2019-01-28T16:07:53.481Z,16.60
2019-01-28T16:10:21.969Z,18.73
2019-01-28T16:12:50.459Z,19.50
2019-01-28T16:15:24.785Z,19.77
2019-01-28T16:17:53.276Z,18.47
2019-01-28T16:20:21.777Z,25.10
2019-01-28T16:22:50.317Z,24.70
2019-01-28T16:25:18.800Z,23.23
2019-01-28T16:27:47.288Z,25.33
2019-01-28T16:30:26.445Z,20.73
2019-01-28T16:32:54.047Z,39.20
2019-01-28T16:35:23.494Z,38.13
2019-01-28T16:37:52.972Z,23.43
2019-01-28T16:40:26.647Z,19.90
2019-01-28T16:42:55.665Z,17.33
2019-01-28T16:45:24.892Z,21.73
2019-01-28T16:47:53.863Z,20.27
2019-01-28T16:50:31.309Z,18.17
2019-01-28T16:53:00.463Z,15.60
2019-01-28T16:55:29.253Z,19.00
2019-01-28T16:57:58.897Z,13.87
2019-01-28T17:00:30.060Z,16.40
2019-01-28T17:02:58.757Z,13.80
2019-01-28T17:05:27.803Z,12.40
2019-01-28T17:07:56.719Z,13.33
2019-01-28T17:10:25.626Z,14.53
2019-01-28T17:12:54.398Z,14.30
2019-01-28T17:15:23.997Z,19.40
2019-01-28T17:17:52.908Z,19.37
2019-01-28T17:20:35.530Z,19.93
2019-01-28T17:23:02.815Z,20.23
2019-01-28T17:25:40.341Z,21.60
2019-01-28T17:28:09.137Z,14.77
2019-01-28T17:30:43.258Z,21.00
2019-01-28T17:33:12.106Z,25.77
2019-01-28T17:35:40.910Z,23.33
2019-01-28T17:38:10.700Z,22.53
2019-01-28T17:40:40.159Z,20.03
2019-01-28T17:43:10.732Z,18.77
2019-01-28T17:45:39.536Z,18.37
2019-01-28T17:48:09.087Z,17.57
2019-01-28T17:50:43.373Z,15.80
2019-01-28T17:53:08.305Z,18.10
2019-01-28T17:55:37.048Z,14.60
2019-01-28T17:58:06.669Z,18.33
2019-01-28T18:00:39.783Z,16.03
2019-01-28T18:03:08.512Z,15.67
2019-01-28T18:05:37.321Z,25.43
2019-01-28T18:08:06.625Z,22.03
2019-01-28T18:10:35.466Z,21.27
2019-01-28T18:13:04.276Z,23.43
2019-01-28T18:15:32.983Z,25.97
2019-01-28T18:18:04.633Z,31.53
2019-01-28T18:20:36.331Z,31.03
2019-01-28T18:23:05.238Z,26.43
2019-01-28T18:25:36.731Z,24.60
2019-01-28T18:28:06.238Z,25.70
2019-01-28T18:30:51.988Z,26.50
2019-01-28T18:33:20.707Z,23.07
2019-01-28T18:35:49.502Z,22.97
2019-01-28T18:38:19.708Z,27.17
2019-01-28T18:40:48.425Z,25.03
2019-01-28T18:43:17.342Z,23.03
2019-01-28T18:45:46.172Z,25.57
2019-01-28T18:48:16.350Z,23.77
2019-01-28T18:50:45.060Z,23.70
2019-01-28T18:53:13.826Z,21.03
2019-01-28T18:55:43.961Z,20.23
2019-01-28T18:58:12.673Z,20.30
2019-01-28T19:00:41.417Z,19.87
2019-01-28T19:03:10.119Z,20.63
2019-01-28T19:05:56.628Z,16.47
2019-01-28T19:08:27.004Z,16.80
2019-01-28T19:11:00.282Z,16.53
2019-01-28T19:13:30.563Z,18.80
2019-01-28T19:16:00.947Z,20.50
2019-01-28T19:18:34.407Z,20.77
2019-01-28T19:21:13.504Z,15.87
2019-01-28T19:23:42.642Z,14.90
2019-01-28T19:26:11.527Z,17.57
2019-01-28T19:28:40.230Z,18.63
2019-01-28T19:31:09.083Z,15.97
2019-01-28T19:33:37.783Z,17.07
2019-01-28T19:36:06.624Z,15.70
2019-01-28T19:38:35.375Z,18.00
2019-01-28T19:41:04.189Z,17.97
2019-01-28T19:43:32.890Z,20.67
2019-01-28T19:46:01.632Z,18.90
2019-01-28T19:48:30.328Z,18.57
2019-01-28T19:51:00.505Z,18.77
2019-01-28T19:53:29.254Z,17.80
2019-01-28T19:55:57.967Z,20.60
2019-01-28T19:58:26.679Z,16.30
2019-01-28T20:00:55.424Z,14.57
2019-01-28T20:03:24.135Z,14.73
2019-01-28T20:05:52.830Z,16.33
2019-01-28T20:08:21.579Z,16.90
2019-01-28T20:10:50.494Z,20.53
2019-01-28T20:13:19.291Z,18.23
2019-01-28T20:15:48.044Z,14.17
2019-01-28T20:18:16.747Z,14.20
2019-01-28T20:20:45.447Z,31.93
2019-01-28T20:23:14.235Z,28.90
2019-01-28T20:25:42.946Z,31.40
2019-01-28T20:28:13.201Z,34.00
2019-01-28T20:30:42.003Z,27.33
2019-01-28T20:33:10.710Z,24.77
2019-01-28T20:35:39.431Z,23.13
2019-01-28T20:38:15.404Z,20.57
2019-01-28T20:40:38.624Z,18.93
2019-01-28T20:43:08.327Z,29.33
2019-01-28T20:45:44.933Z,33.80
2019-01-28T20:48:10.295Z,25.83
2019-01-28T20:50:38.995Z,23.90
2019-01-28T20:53:07.756Z,22.40
2019-01-28T20:55:36.475Z,44.20
2019-01-28T20:58:05.619Z,29.07
2019-01-28T21:00:34.352Z,30.10
2019-01-28T21:03:03.033Z,28.53
2019-01-28T21:05:31.734Z,27.13
2019-01-28T21:08:01.940Z,51.47
2019-01-28T21:10:30.647Z,24.67
2019-01-28T21:12:59.351Z,24.63
2019-01-28T21:15:28.163Z,19.80
2019-01-28T21:17:56.823Z,20.10
2019-01-28T21:20:25.537Z,24.67
2019-01-28T21:22:54.276Z,18.93
2019-01-28T21:25:28.724Z,20.10
2019-01-28T21:27:57.551Z,16.37
2019-01-28T21:30:31.717Z,13.80
2019-01-28T21:33:00.513Z,19.73
2019-01-28T21:35:49.185Z,18.17
2019-01-28T21:38:25.571Z,14.33
2019-01-28T21:40:54.314Z,41.30
2019-01-28T21:43:23.013Z,20.23
2019-01-28T21:45:52.570Z,18.03
2019-01-28T21:48:21.315Z,26.57
2019-01-28T21:50:50.022Z,20.53
2019-01-28T21:53:18.716Z,15.73
2019-01-28T21:55:47.453Z,13.87
2019-01-28T21:58:16.151Z,14.63
2019-01-28T22:00:45.014Z,21.67
2019-01-28T22:03:13.753Z,18.97
2019-01-28T22:05:42.449Z,17.33
2019-01-28T22:08:11.083Z,19.93
2019-01-28T22:10:39.746Z,15.40
2019-01-28T22:13:08.509Z,14.40
2019-01-28T22:15:37.215Z,15.23
2019-01-28T22:18:06.047Z,14.57
2019-01-28T22:20:34.685Z,18.63
2019-01-28T22:23:03.307Z,17.27
2019-01-28T22:25:32.046Z,14.57
2019-01-28T22:28:00.753Z,18.37
2019-01-28T22:30:29.380Z,16.30
2019-01-28T22:32:58.041Z,17.33
2019-01-28T22:35:26.665Z,15.40
2019-01-28T22:37:55.291Z,17.53
2019-01-28T22:40:23.952Z,15.60
2019-01-28T22:42:52.654Z,16.53
2019-01-28T22:45:21.781Z,16.40
2019-01-28T22:47:51.318Z,20.83
2019-01-28T22:50:21.352Z,18.23
2019-01-28T22:52:49.988Z,19.07
2019-01-28T22:55:21.886Z,20.00
2019-01-28T22:57:50.529Z,17.50
2019-01-28T23:00:51.327Z,15.10
2019-01-28T23:03:21.667Z,16.53
2019-01-28T23:05:50.298Z,16.77
2019-01-28T23:08:18.966Z,23.87
2019-01-28T23:10:47.597Z,19.03
2019-01-28T23:13:16.223Z,23.07
2019-01-28T23:15:44.890Z,16.10
2019-01-28T23:18:13.525Z,16.33
2019-01-28T23:20:42.149Z,23.13
2019-01-28T23:23:10.815Z,23.87
2019-01-28T23:25:39.458Z,18.73
2019-01-28T23:28:09.184Z,37.73
2019-01-28T23:30:37.942Z,18.57
2019-01-28T23:33:06.674Z,16.87
2019-01-28T23:35:35.303Z,19.47
2019-01-28T23:38:05.167Z,16.17
2019-01-28T23:40:33.822Z,23.57
2019-01-28T23:43:02.438Z,19.37
2019-01-28T23:45:31.114Z,18.60
2019-01-28T23:47:59.745Z,17.67
2019-01-28T23:50:29.225Z,17.77
2019-01-28T23:52:57.874Z,15.53
2019-01-28T23:55:26.501Z,16.60
2019-01-28T23:57:56.894Z,16.53
